Terminal Aerodrome Forecast
Issued by NWS

Home | Current Version | Previous Version | Text Only | Print | Product List | Glossary Off
Versions: 1 2 3 4 5 6 7 8 9 10 11 12 13 14 15 16 17 18 19 20 21 22 23 24 25 26 27

479
FTUS43 KLOT 171720
TAFDPA
TAF
KDPA 171720Z 1718/1818 23014G22KT P6SM SCT015 BKN025 OVC035
     FM172000 24018G26KT P6SM BKN035
     FM180100 26013G20KT P6SM BKN040
     FM180600 28012KT P6SM SCT040
     FM181500 29012G19KT P6SM SCT040=

USA.gov is the U.S. government's official web portal to all federal, state and local government web resources and services.